Sunday, March 01, 2015
12:29 UTC
  |  Log In   |  Register Free
Airport Search:

Carmi Municipal Airport
(KCUL)

Carmi Municipal Airport Diagram
No Airport Diagram Available

FAA data valid effective January 08, 2015 - March 05, 2015 (unless otherwise noted).

 
 
 
 
 
 
 
 
 
 
 
 
 
 

Current Aviation Weather for Carmi Municipal Airport (KCUL)

The most recent METAR observation for KCUL was updated at: 1212
METAR Summary (Translated METAR)
KCUL
011155Z AUTO 00000KT 5SM -RA BKN044 01/00 A3037 RMK AO2 P0001 60001 70001 T00071001 10010 20002
KFWC
011155Z AUTO 00000KT 2SM -SN OVC023 00/M01 A3037 RMK AO1 P0002 60014 70022 T10051008 11005 21017
(22.1 nm NW from KCUL)
KHSB
011155Z AUTO 11005KT 10SM UP OVC050 00/M02 A3037 RMK AO2 T00001025 10001 21003
(26.2 nm SW from KCUL)
TAF
No TAF information found within 50 nm of KCUL
  Airport Weather Conditions for KCUL

 Current Weather at CUL
33° F
Light Rain
North winds at 0.0 mph
CUL NOAA Radar

Pressure: 30.37 in
Humidity: 94%
Wind: Calm
Dew Point: 31.8°F
Visibility: 5.00 mi


Airport Weather Forecast for KCUL

Translated METAR and TAF for KCUL
Translated METAR for KCUL (1228 UTC 01 March 2015)
found at http://aviationweather.gov/adds/metars/
 
METAR text: KCUL 011215Z AUTO 00000KT 5SM -RA CLR 01/00 A3037 RMK AO2 P0001 T00070000
Conditions at: KCUL (CARMI MUNI , IL, US) observed 1215 UTC 01 March 2015
Temperature: 0.7°C (33°F)
Dewpoint: 0.0°C (32°F) [RH = 95%]
Pressure (altimeter): 30.37 inches Hg (1028.5 mb)
Winds: calm
Visibility: 5 miles (8 km)
Ceiling: at least 12,000 feet AGL
Clouds: sky clear below 12,000 feet AGL
Weather: -RA  (light rain)
Translated TAF for KCUL

There is no translated TAF available for this airport

Find All Airport Services Find A Hotel Find A Rental Car Find A Golf Course Find A Restaurant $100 Hamburger



FBO's on the Field
FBO Company Facility Photos Services Transportation Aviation Fuel Prices: Prices include tax
Catering Weather Repair Courtesy Rental Type 100LL JetA JetA+ MOGAS 8087
 
Carmi Municipal Airport

This FBO has not yet been rated
FS:Shell
Last Updated: Feb-18
Login to update fuel prices
SS:
Contact Carmi Municipal AirportMore FBO Information
 
Carmi Municipal Airport

This FBO has not yet been rated
FS:Shell
Last Updated: Jan-27
Login to update fuel prices
SS:
Contact Carmi Municipal AirportMore FBO Information
 
Add another FBO Facility Photos Catering Weather Repair Courtesy Rental Type 100LL JetA JetA+ MOGAS 8087
Services Transportation Aviation Fuel Prices: Prices include tax


model-print
model-print
model-print
model-print